createdAt,value
2016-03-19T00:00:20.064Z,955.67
2016-03-19T00:01:19.895Z,955.66
2016-03-19T00:02:19.928Z,955.65
2016-03-19T00:03:20.197Z,955.64
2016-03-19T00:04:20.231Z,955.66
2016-03-19T00:05:20.186Z,955.65
2016-03-19T00:06:19.970Z,955.62
2016-03-19T00:07:20.097Z,955.6
2016-03-19T00:08:20.038Z,955.61
2016-03-19T00:09:20.228Z,955.62
2016-03-19T00:10:19.794Z,955.56
2016-03-19T00:11:19.796Z,955.57
2016-03-19T00:12:19.924Z,955.57
2016-03-19T00:13:19.739Z,955.51
2016-03-19T00:14:19.976Z,955.51
2016-03-19T00:15:19.744Z,955.53
2016-03-19T00:16:17.700Z,955.54
2016-03-19T00:17:20.140Z,955.51
2016-03-19T00:18:19.816Z,955.52
2016-03-19T00:19:20.037Z,955.5
2016-03-19T00:20:17.665Z,955.48
2016-03-19T00:21:17.776Z,955.45
2016-03-19T00:22:19.920Z,955.48
2016-03-19T00:23:19.985Z,955.46
2016-03-19T00:24:20.004Z,955.52
2016-03-19T00:25:19.631Z,955.52
2016-03-19T00:26:19.884Z,955.53
2016-03-19T00:27:19.684Z,955.52
2016-03-19T00:28:20.342Z,955.51
2016-03-19T00:29:45.220Z,955.53
2016-03-19T00:31:07.801Z,955.53
2016-03-19T00:33:17.087Z,955.58
2016-03-19T00:34:39.515Z,955.55
2016-03-19T00:36:01.486Z,955.56
2016-03-19T00:37:24.397Z,955.58
2016-03-19T00:38:42.948Z,955.54
2016-03-19T00:40:00.434Z,955.52
2016-03-19T00:41:22.236Z,955.5
2016-03-19T00:42:40.661Z,955.54
2016-03-19T00:44:03.585Z,955.47
2016-03-19T00:45:21.779Z,955.48
2016-03-19T00:47:12.688Z,955.45
2016-03-19T00:48:47.661Z,955.44
2016-03-19T00:50:19.977Z,955.42
2016-03-19T00:51:40.077Z,955.35
2016-03-19T00:53:28.082Z,955.35
2016-03-19T00:55:12.882Z,955.34
2016-03-19T00:56:30.012Z,955.32
2016-03-19T00:57:41.593Z,955.3
2016-03-19T00:58:36.001Z,955.32
2016-03-19T00:59:36.785Z,955.27
2016-03-19T01:01:01.648Z,955.27
2016-03-19T01:02:02.384Z,955.27
2016-03-19T01:03:01.653Z,955.24
2016-03-19T01:04:01.811Z,955.27
2016-03-19T01:05:01.768Z,955.24
2016-03-19T01:06:01.582Z,955.23
2016-03-19T01:07:01.570Z,955.23
2016-03-19T01:08:02.635Z,955.18
2016-03-19T01:09:01.785Z,955.15
2016-03-19T01:10:01.512Z,955.15
2016-03-19T01:11:01.506Z,955.14
2016-03-19T01:12:01.421Z,955.15
2016-03-19T01:13:01.648Z,955.13
2016-03-19T01:14:01.646Z,955.09
2016-03-19T01:15:01.442Z,955.03
2016-03-19T01:16:01.411Z,955.02
2016-03-19T01:17:02.363Z,955.07
2016-03-19T01:18:01.424Z,955.05
2016-03-19T01:19:01.582Z,955.03
2016-03-19T01:20:02.412Z,955.07
2016-03-19T01:21:02.335Z,955.06
2016-03-19T01:22:01.337Z,955.05
2016-03-19T01:23:02.089Z,955.04
2016-03-19T01:24:01.309Z,955.02
2016-03-19T01:25:02.343Z,955
2016-03-19T01:26:01.283Z,954.96
2016-03-19T01:27:01.426Z,955.02
2016-03-19T01:28:02.037Z,954.98
2016-03-19T01:29:02.228Z,954.99
2016-03-19T01:30:03.293Z,955.01
2016-03-19T01:31:01.281Z,954.96
2016-03-19T01:32:01.251Z,954.98
2016-03-19T01:33:01.910Z,954.98
2016-03-19T01:34:01.975Z,954.98
2016-03-19T01:35:01.181Z,954.94
2016-03-19T01:36:02.090Z,954.95
2016-03-19T01:37:01.031Z,954.9
2016-03-19T01:38:01.158Z,954.89
2016-03-19T01:39:01.317Z,954.86
2016-03-19T01:40:01.288Z,954.87
2016-03-19T01:41:01.119Z,954.91
2016-03-19T01:42:01.872Z,954.86
2016-03-19T01:43:01.108Z,954.91
2016-03-19T01:44:02.299Z,954.9
2016-03-19T01:45:01.082Z,954.94
2016-03-19T01:46:01.961Z,954.92
2016-03-19T01:47:01.088Z,954.89
2016-03-19T01:48:01.638Z,954.85
2016-03-19T01:49:01.235Z,954.87
2016-03-19T01:50:01.221Z,954.84
2016-03-19T01:51:02.162Z,954.86
2016-03-19T01:52:01.164Z,954.86
2016-03-19T01:53:00.980Z,954.86
2016-03-19T01:54:01.185Z,954.81
2016-03-19T01:55:03.235Z,954.88
2016-03-19T01:56:01.175Z,954.9
2016-03-19T01:57:01.975Z,954.84
2016-03-19T01:58:00.931Z,954.89
2016-03-19T01:59:01.105Z,954.88
2016-03-19T02:00:01.702Z,954.83
2016-03-19T02:01:01.907Z,954.87
2016-03-19T02:02:00.895Z,954.86
2016-03-19T02:03:01.616Z,954.88
2016-03-19T02:04:01.056Z,954.9
2016-03-19T02:05:00.872Z,954.88
2016-03-19T02:06:01.609Z,954.91
2016-03-19T02:07:00.830Z,954.88
2016-03-19T02:08:02.175Z,954.9
2016-03-19T02:09:01.508Z,954.91
2016-03-19T02:10:00.791Z,954.9
2016-03-19T02:11:01.528Z,954.89
2016-03-19T02:12:01.594Z,954.89
2016-03-19T02:13:00.752Z,954.91
2016-03-19T02:14:01.724Z,954.82
2016-03-19T02:15:00.898Z,954.82
2016-03-19T02:16:01.698Z,954.89
2016-03-19T02:17:01.919Z,954.85
2016-03-19T02:18:01.702Z,954.81
2016-03-19T02:19:01.143Z,954.83
2016-03-19T02:20:00.849Z,954.83
2016-03-19T02:21:00.648Z,954.81
2016-03-19T02:22:00.635Z,954.75
2016-03-19T02:23:01.607Z,954.83
2016-03-19T02:24:00.563Z,954.77
2016-03-19T02:25:00.596Z,954.78
2016-03-19T02:26:01.381Z,954.76
2016-03-19T02:27:01.352Z,954.74
2016-03-19T02:28:00.543Z,954.72
2016-03-19T02:29:00.529Z,954.71
2016-03-19T02:30:01.703Z,954.73
2016-03-19T02:31:00.534Z,954.72
2016-03-19T02:32:01.725Z,954.73
2016-03-19T02:33:00.540Z,954.74
2016-03-19T02:34:00.496Z,954.74
2016-03-19T02:35:00.468Z,954.74
2016-03-19T02:36:00.470Z,954.73
2016-03-19T02:37:00.675Z,954.72
2016-03-19T02:38:00.444Z,954.73
2016-03-19T02:39:01.275Z,954.76
2016-03-19T02:40:00.419Z,954.76
2016-03-19T02:41:01.405Z,954.77
2016-03-19T02:42:00.361Z,954.73
2016-03-19T02:43:01.239Z,954.69
2016-03-19T02:44:00.383Z,954.72
2016-03-19T02:45:01.244Z,954.74
2016-03-19T02:46:00.372Z,954.75
2016-03-19T02:47:00.344Z,954.76
2016-03-19T02:48:00.518Z,954.73
2016-03-19T02:49:00.318Z,954.77
2016-03-19T02:50:00.493Z,954.7
2016-03-19T02:51:01.230Z,954.7
2016-03-19T02:52:00.263Z,954.67
2016-03-19T02:53:00.250Z,954.68
2016-03-19T02:54:00.284Z,954.68
2016-03-19T02:55:00.396Z,954.63
2016-03-19T02:56:03.055Z,954.66
2016-03-19T02:57:47.639Z,954.65
2016-03-19T02:58:54.970Z,954.66
2016-03-19T02:59:55.019Z,954.59
2016-03-19T03:00:54.960Z,954.59
2016-03-19T03:01:54.993Z,954.6
2016-03-19T03:02:54.965Z,954.59
2016-03-19T03:03:54.983Z,954.57
2016-03-19T03:04:54.923Z,954.55
2016-03-19T03:05:54.957Z,954.58
2016-03-19T03:06:55.147Z,954.58
2016-03-19T03:07:55.962Z,954.55
2016-03-19T03:09:54.874Z,954.5
2016-03-19T03:10:55.111Z,954.51
2016-03-19T03:11:55.911Z,954.54
2016-03-19T03:12:54.836Z,954.54
2016-03-19T03:13:57.416Z,954.54
2016-03-19T03:14:54.777Z,954.57
2016-03-19T03:15:54.780Z,954.6
2016-03-19T03:16:54.815Z,954.58
2016-03-19T03:17:57.083Z,954.59
2016-03-19T03:18:54.757Z,954.57
2016-03-19T03:19:54.808Z,954.59
2016-03-19T03:21:55.546Z,954.55
2016-03-19T03:22:56.393Z,954.57
2016-03-19T03:23:56.974Z,954.6
2016-03-19T03:24:57.258Z,954.56
2016-03-19T03:25:56.698Z,954.59
2016-03-19T03:26:54.638Z,954.6
2016-03-19T03:27:56.704Z,954.59
2016-03-19T03:28:56.940Z,954.58
2016-03-19T03:29:56.740Z,954.61
2016-03-19T03:30:56.665Z,954.58
2016-03-19T03:31:56.824Z,954.58
2016-03-19T03:32:56.593Z,954.59
2016-03-19T03:33:57.032Z,954.6
2016-03-19T03:34:56.535Z,954.56
2016-03-19T03:35:56.553Z,954.59
2016-03-19T03:36:56.884Z,954.56
2016-03-19T03:37:57.043Z,954.58
2016-03-19T03:38:56.671Z,954.59
2016-03-19T03:39:57.298Z,954.62
2016-03-19T03:40:56.801Z,954.59
2016-03-19T03:41:56.679Z,954.59
2016-03-19T03:42:56.932Z,954.6
2016-03-19T03:43:56.497Z,954.6
2016-03-19T03:44:56.811Z,954.58
2016-03-19T03:45:56.736Z,954.59
2016-03-19T03:46:56.458Z,954.58
2016-03-19T03:47:56.679Z,954.57
2016-03-19T03:48:56.947Z,954.58
2016-03-19T03:49:56.684Z,954.55
2016-03-19T03:50:56.375Z,954.54
2016-03-19T03:51:56.955Z,954.56
2016-03-19T03:52:56.537Z,954.5
2016-03-19T03:53:54.665Z,954.53
2016-03-19T03:54:56.620Z,954.51
2016-03-19T03:55:56.310Z,954.49
2016-03-19T03:56:56.218Z,954.5
2016-03-19T03:57:54.285Z,954.49
2016-03-19T03:58:56.506Z,954.49
2016-03-19T03:59:56.476Z,954.48
2016-03-19T04:00:56.620Z,954.49
2016-03-19T04:01:56.514Z,954.5
2016-03-19T04:02:56.517Z,954.49
2016-03-19T04:03:56.800Z,954.47
2016-03-19T04:04:56.460Z,954.49
2016-03-19T04:05:56.540Z,954.51
2016-03-19T04:06:57.011Z,954.49
2016-03-19T04:07:56.577Z,954.49
2016-03-19T04:08:56.564Z,954.48
2016-03-19T04:09:57.020Z,954.55
2016-03-19T04:10:56.303Z,954.51
2016-03-19T04:11:56.572Z,954.49
2016-03-19T04:12:56.933Z,954.49
2016-03-19T04:13:56.344Z,954.48
2016-03-19T04:14:56.580Z,954.51
2016-03-19T04:15:55.427Z,954.55
2016-03-19T04:16:56.352Z,954.54
2016-03-19T10:37:24.537Z,956.03
2016-03-19T10:38:24.523Z,955.99
2016-03-19T10:39:24.198Z,956.04
2016-03-19T10:40:24.716Z,956
2016-03-19T10:41:24.344Z,956.04
2016-03-19T10:42:22.236Z,956.02
2016-03-19T10:43:22.974Z,956.01
2016-03-19T10:44:24.383Z,956.01
2016-03-19T10:45:24.573Z,955.99
2016-03-19T10:46:24.405Z,956.01
2016-03-19T10:47:24.313Z,955.98
2016-03-19T10:48:24.113Z,955.97
2016-03-19T10:49:24.396Z,955.97
2016-03-19T10:50:24.290Z,955.97
2016-03-19T10:51:24.324Z,955.97
2016-03-19T10:52:24.295Z,955.94
2016-03-19T10:53:24.282Z,955.93
2016-03-19T10:54:24.472Z,955.92
2016-03-19T10:55:23.991Z,955.95
2016-03-19T10:56:24.307Z,955.9
2016-03-19T10:57:22.043Z,955.86
2016-03-19T10:58:24.296Z,955.85
2016-03-19T10:59:24.001Z,955.83
2016-03-19T11:00:23.973Z,955.84
2016-03-19T11:01:24.616Z,955.89
2016-03-19T11:02:23.978Z,955.88
2016-03-19T11:03:23.981Z,955.88
2016-03-19T11:04:23.937Z,955.88
2016-03-19T11:05:24.095Z,955.86
2016-03-19T11:06:24.317Z,955.87
2016-03-19T11:07:23.882Z,955.86
2016-03-19T11:08:24.447Z,955.91
2016-03-19T11:09:24.091Z,955.88
2016-03-19T11:10:23.828Z,955.94
2016-03-19T11:12:23.927Z,955.92
2016-03-19T11:13:23.852Z,955.92
2016-03-19T11:14:24.605Z,955.94
2016-03-19T11:15:23.841Z,955.95
2016-03-19T11:16:23.875Z,955.95
2016-03-19T11:17:24.081Z,955.96
2016-03-19T11:18:24.146Z,955.94
2016-03-19T11:19:24.024Z,955.94
2016-03-19T11:20:23.729Z,955.93
2016-03-19T11:21:23.920Z,955.97
2016-03-19T11:22:24.063Z,955.92
2016-03-19T11:23:22.504Z,955.94
2016-03-19T11:24:24.240Z,955.92
2016-03-19T11:25:24.009Z,955.9
2016-03-19T11:27:23.873Z,955.89
2016-03-19T11:28:24.080Z,955.91
2016-03-19T11:29:23.926Z,955.92
2016-03-19T11:30:24.257Z,955.91
2016-03-19T11:31:23.837Z,955.85
2016-03-19T11:32:23.668Z,955.88
2016-03-19T11:33:23.639Z,955.89
2016-03-19T11:34:23.642Z,955.88
2016-03-19T11:35:23.582Z,955.91
2016-03-19T11:36:23.648Z,955.88
2016-03-19T11:37:23.823Z,955.9
2016-03-19T11:38:23.857Z,955.87
2016-03-19T11:39:23.500Z,955.87
2016-03-19T11:40:24.018Z,955.87
2016-03-19T11:41:23.536Z,955.85
2016-03-19T11:42:24.226Z,955.87
2016-03-19T11:43:24.119Z,955.85
2016-03-19T11:44:23.731Z,955.84
2016-03-19T11:45:23.827Z,955.82
2016-03-19T11:46:23.690Z,955.86
2016-03-19T11:47:23.756Z,955.86
2016-03-19T11:48:23.696Z,955.83
2016-03-19T11:49:24.370Z,955.86
2016-03-19T11:50:23.545Z,955.83
2016-03-19T11:51:23.500Z,955.79
2016-03-19T11:52:23.721Z,955.8
2016-03-19T11:53:23.678Z,955.79
2016-03-19T11:54:23.649Z,955.8
2016-03-19T11:55:23.386Z,955.78
2016-03-19T11:56:23.404Z,955.78
2016-03-19T11:57:23.735Z,955.82
2016-03-19T11:58:21.269Z,955.8
2016-03-19T11:59:21.537Z,955.77
2016-03-19T12:00:23.462Z,955.74
2016-03-19T12:01:23.652Z,955.74
2016-03-19T12:02:23.342Z,955.77
2016-03-19T12:03:23.565Z,955.78
2016-03-19T12:04:21.489Z,955.75
2016-03-19T12:05:21.476Z,955.72
2016-03-19T12:06:23.619Z,955.73
2016-03-19T12:07:21.450Z,955.73
2016-03-19T12:08:23.265Z,955.75
2016-03-19T12:09:23.595Z,955.77
2016-03-19T12:10:23.364Z,955.72
2016-03-19T12:11:21.804Z,955.74
2016-03-19T12:12:23.401Z,955.72
2016-03-19T12:13:21.201Z,955.74
2016-03-19T12:14:21.391Z,955.74
2016-03-19T12:15:21.784Z,955.75
2016-03-19T12:16:23.286Z,955.7
